Saint-Jacques, Canada
Current Conditions -  °F | °C
As of 12:00 AM on Saturday 25 Oct 2014 (Local Time) from CYMX Reporting Station
Scattered Clouds Scattered Clouds  
Wind Chill: 42°   Ceiling: Unl
Heat Index: 45°   Visibility: 25mi
Dew Point: 39°   Wind: 5mph
Humidity: 81%   Direction: 260°W
Pressure: 29.79"   Gusts: NA
Location:  45.95°N, 73.57°W
Report Text: CYMX 250400Z 26004KT 25SM FEW110 SCT150 07/04 A2979 RMK AC1AC3 AC TR SLP088
Loading
Personal Weather Stations






























Interactive Weather Map
Tropical Storm Tracking
New forecast layout! Learn more

10-Day Weather Forecast

Advertisements
Track Severe Weather on mobile